createdAt,value
2023-04-25T00:00:45.780Z,91.59
2023-04-25T00:01:45.745Z,91.07
2023-04-25T00:02:45.890Z,91.69
2023-04-25T00:03:46.016Z,91.49
2023-04-25T00:04:46.136Z,91.07
2023-04-25T00:05:45.723Z,91.49
2023-04-25T00:06:45.717Z,91.07
2023-04-25T00:07:45.722Z,91.42
2023-04-25T00:08:45.695Z,91.38
2023-04-25T00:09:45.670Z,91.49
2023-04-25T00:10:45.681Z,91.38
2023-04-25T00:11:45.670Z,90.87
2023-04-25T00:12:45.638Z,90.56
2023-04-25T00:13:45.651Z,90.56
2023-04-25T00:14:45.621Z,90.77
2023-04-25T00:15:45.616Z,90.87
2023-04-25T00:16:45.598Z,90.66
2023-04-25T00:17:45.597Z,90.56
2023-04-25T00:18:45.581Z,90.56
2023-04-25T00:19:45.571Z,90.45
2023-04-25T00:20:45.569Z,90.14
2023-04-25T00:21:45.530Z,90.25
2023-04-25T00:22:45.578Z,89.69
2023-04-25T00:23:45.516Z,90.31
2023-04-25T00:24:45.533Z,89.69
2023-04-25T00:25:45.499Z,89.48
2023-04-25T00:26:45.527Z,90.10
2023-04-25T00:27:45.474Z,89.69
2023-04-25T00:28:45.492Z,90.41
2023-04-25T00:29:45.456Z,89.79
2023-04-25T00:30:45.487Z,89.17
2023-04-25T00:31:45.506Z,89.13
2023-04-25T00:32:45.547Z,89.54
2023-04-25T00:33:45.409Z,88.82
2023-04-25T00:34:45.431Z,88.82
2023-04-25T00:35:45.402Z,89.65
2023-04-25T00:36:45.407Z,89.86
2023-04-25T00:37:45.382Z,89.54
2023-04-25T00:38:45.415Z,88.92
2023-04-25T00:39:45.346Z,89.13
2023-04-25T00:40:45.354Z,90.37
2023-04-25T00:41:45.318Z,89.23
2023-04-25T00:42:45.336Z,88.61
2023-04-25T00:43:45.320Z,88.92
2023-04-25T00:44:45.316Z,89.65
2023-04-25T00:45:45.280Z,89.23
2023-04-25T00:46:45.345Z,88.51
2023-04-25T00:47:45.280Z,88.92
2023-04-25T00:48:45.273Z,89.54
2023-04-25T00:49:45.267Z,88.41
2023-04-25T00:50:45.248Z,88.51
2023-04-25T00:51:45.223Z,89.34
2023-04-25T00:52:45.250Z,89.03
2023-04-25T00:53:45.196Z,88.71
2023-04-25T00:54:45.215Z,89.03
2023-04-25T00:55:45.189Z,89.54
2023-04-25T00:56:45.208Z,89.13
2023-04-25T00:57:45.165Z,89.13
2023-04-25T00:58:45.186Z,89.34
2023-04-25T00:59:45.131Z,88.92
2023-04-25T01:00:45.177Z,88.82
2023-04-25T01:01:45.382Z,88.92
2023-04-25T01:02:45.230Z,88.61
2023-04-25T01:03:45.283Z,88.89
2023-04-25T01:04:45.084Z,88.68
2023-04-25T01:05:45.092Z,88.71
2023-04-25T01:06:45.073Z,89.50
2023-04-25T01:07:45.114Z,89.40
2023-04-25T01:08:45.047Z,90.02
2023-04-25T01:09:45.067Z,89.61
2023-04-25T01:10:45.023Z,88.89
2023-04-25T01:11:45.073Z,88.98
2023-04-25T01:12:45.009Z,89.09
2023-04-25T01:13:45.057Z,89.09
2023-04-25T01:14:44.992Z,88.78
2023-04-25T01:15:45.001Z,88.57
2023-04-25T01:16:45.016Z,88.89
2023-04-25T01:17:44.992Z,88.98
2023-04-25T01:18:44.942Z,88.89
2023-04-25T01:19:44.973Z,88.98
2023-04-25T01:20:44.961Z,88.98
2023-04-25T01:21:44.933Z,89.29
2023-04-25T01:22:44.917Z,89.61
2023-04-25T01:23:44.922Z,89.61
2023-04-25T01:24:44.875Z,89.29
2023-04-25T01:25:44.915Z,89.92
2023-04-25T01:26:44.857Z,90.12
2023-04-25T01:27:44.882Z,89.61
2023-04-25T01:28:44.840Z,90.43
2023-04-25T01:29:44.846Z,89.61
2023-04-25T01:30:44.820Z,89.61
2023-04-25T01:31:44.846Z,89.71
2023-04-25T01:32:44.831Z,89.92
2023-04-25T01:33:44.820Z,89.81
2023-04-25T01:34:44.781Z,89.92
2023-04-25T01:35:44.792Z,91.26
2023-04-25T01:36:44.771Z,92.70
2023-04-25T01:37:44.783Z,92.70
2023-04-25T01:38:44.740Z,92.50
2023-04-25T01:39:44.738Z,93.32
2023-04-25T01:40:44.716Z,94.25
2023-04-25T01:41:44.724Z,94.81
2023-04-25T01:42:44.712Z,95.22
2023-04-25T01:43:44.725Z,95.53
2023-04-25T01:44:44.690Z,95.84
2023-04-25T01:45:44.713Z,96.77
2023-04-25T01:46:44.652Z,97.19
2023-04-25T01:47:44.826Z,96.56
2023-04-25T01:48:44.631Z,96.77
2023-04-25T01:49:44.688Z,96.67
2023-04-25T01:50:44.610Z,97.29
2023-04-25T01:51:44.627Z,98.43
2023-04-25T01:52:44.585Z,98.78
2023-04-25T01:53:44.604Z,99.61
2023-04-25T01:54:44.567Z,98.88
2023-04-25T01:55:44.634Z,99.99
2023-04-25T01:56:44.564Z,99.99
2023-04-25T01:57:44.585Z,99.99
2023-04-25T01:58:44.539Z,99.99
2023-04-25T01:59:44.547Z,99.99
2023-04-25T02:00:44.507Z,99.99
2023-04-25T02:01:44.568Z,99.99
2023-04-25T02:02:44.644Z,99.99
2023-04-25T02:03:44.640Z,99.99
2023-04-25T02:04:44.630Z,99.99
2023-04-25T02:05:44.475Z,99.99
2023-04-25T02:06:44.481Z,99.99
2023-04-25T02:07:44.467Z,99.99
2023-04-25T02:08:44.428Z,99.99
2023-04-25T02:09:44.436Z,99.99
2023-04-25T02:10:44.400Z,99.99
2023-04-25T02:11:44.416Z,99.99
2023-04-25T02:12:44.384Z,99.99
2023-04-25T02:13:44.454Z,99.99
2023-04-25T02:14:44.366Z,99.99
2023-04-25T02:15:44.452Z,99.99
2023-04-25T02:16:44.429Z,99.99
2023-04-25T02:17:44.381Z,99.99
2023-04-25T02:18:44.320Z,99.99
2023-04-25T02:19:44.365Z,99.99
2023-04-25T02:20:44.312Z,99.99
2023-04-25T02:21:44.324Z,99.99
2023-04-25T02:22:44.281Z,99.99
2023-04-25T02:23:44.291Z,99.99
2023-04-25T02:24:44.284Z,99.99
2023-04-25T02:25:44.293Z,99.99
2023-04-25T02:26:44.242Z,99.99
2023-04-25T02:27:44.266Z,99.99
2023-04-25T02:28:44.275Z,99.99
2023-04-25T02:29:44.233Z,99.99
2023-04-25T02:30:44.196Z,99.99
2023-04-25T02:31:44.269Z,99.99
2023-04-25T02:32:44.268Z,99.99
2023-04-25T02:33:44.209Z,99.99
2023-04-25T02:34:44.162Z,99.99
2023-04-25T02:35:44.184Z,99.99
2023-04-25T02:36:44.166Z,99.99
2023-04-25T02:37:44.182Z,99.99
2023-04-25T02:38:44.158Z,99.99
2023-04-25T02:39:44.128Z,99.99
2023-04-25T02:40:44.140Z,99.99
2023-04-25T02:41:44.135Z,99.99
2023-04-25T02:42:44.168Z,99.99
2023-04-25T02:43:44.122Z,99.99
2023-04-25T02:44:44.164Z,99.99
2023-04-25T02:45:44.197Z,99.99
2023-04-25T02:46:44.101Z,99.99
2023-04-25T02:47:44.179Z,99.99
2023-04-25T02:48:44.018Z,99.99
2023-04-25T02:49:44.055Z,99.99
2023-04-25T02:50:44.023Z,99.99
2023-04-25T02:51:44.026Z,99.99
2023-04-25T02:52:43.977Z,99.99
2023-04-25T02:53:43.988Z,99.99
2023-04-25T02:54:43.951Z,99.99
2023-04-25T02:55:43.986Z,99.99
2023-04-25T02:56:43.932Z,99.99
2023-04-25T02:57:43.943Z,99.99
2023-04-25T02:58:43.926Z,99.99
2023-04-25T02:59:43.928Z,99.99
2023-04-25T03:00:43.911Z,99.99
2023-04-25T03:01:43.932Z,99.99
2023-04-25T03:02:44.022Z,99.99
2023-04-25T03:03:43.963Z,99.99
2023-04-25T03:04:43.910Z,99.99
2023-04-25T03:05:43.867Z,99.99
2023-04-25T03:06:43.840Z,99.99
2023-04-25T03:07:43.877Z,99.99
2023-04-25T03:08:43.854Z,99.99
2023-04-25T03:09:43.853Z,99.99
2023-04-25T03:10:43.812Z,99.99
2023-04-25T03:11:43.835Z,99.99
2023-04-25T03:12:43.790Z,99.99
2023-04-25T03:13:43.805Z,99.99
2023-04-25T03:14:43.769Z,99.99
2023-04-25T03:15:43.774Z,99.99
2023-04-25T03:16:43.749Z,99.99
2023-04-25T03:17:43.828Z,99.99
2023-04-25T03:18:43.724Z,99.99
2023-04-25T03:19:43.771Z,99.99
2023-04-25T03:20:43.686Z,99.99
2023-04-25T03:21:43.696Z,99.99
2023-04-25T03:22:43.669Z,99.99
2023-04-25T03:23:43.681Z,99.99
2023-04-25T03:24:43.652Z,99.99
2023-04-25T03:25:43.680Z,99.99
2023-04-25T03:26:43.647Z,99.99
2023-04-25T03:27:43.642Z,99.99
2023-04-25T03:28:43.671Z,99.99
2023-04-25T03:29:43.603Z,99.99
2023-04-25T03:30:43.616Z,99.99
2023-04-25T03:31:43.634Z,99.99
2023-04-25T03:32:43.610Z,99.99
2023-04-25T03:33:43.553Z,99.99
2023-04-25T03:34:43.568Z,99.99
2023-04-25T03:35:43.544Z,99.99
2023-04-25T03:36:43.554Z,99.99
2023-04-25T03:37:43.531Z,99.99
2023-04-25T03:38:43.520Z,99.99
2023-04-25T03:39:43.487Z,99.99
2023-04-25T03:40:43.505Z,99.99
2023-04-25T03:41:43.473Z,99.99
2023-04-25T03:42:45.011Z,99.99
2023-04-25T03:43:43.474Z,99.99
2023-04-25T03:44:43.461Z,99.99
2023-04-25T03:45:43.463Z,99.99
2023-04-25T03:46:43.441Z,99.99
2023-04-25T03:47:43.455Z,99.99
2023-04-25T03:48:43.417Z,99.99
2023-04-25T03:49:43.543Z,99.99
2023-04-25T03:50:43.417Z,99.99
2023-04-25T03:51:43.368Z,99.99
2023-04-25T03:52:43.379Z,99.99
2023-04-25T03:53:43.347Z,99.99
2023-04-25T03:54:43.367Z,99.99
2023-04-25T03:55:43.682Z,99.99
2023-04-25T03:56:43.346Z,99.99
2023-04-25T03:57:43.309Z,99.99
2023-04-25T03:58:43.351Z,99.99
2023-04-25T03:59:43.323Z,99.99
2023-04-25T04:00:43.318Z,99.99
2023-04-25T04:01:43.294Z,99.99
2023-04-25T04:02:45.332Z,99.99
2023-04-25T04:03:43.368Z,99.99
2023-04-25T04:04:43.494Z,99.99
2023-04-25T04:05:43.291Z,99.99
2023-04-25T04:06:43.299Z,99.99
2023-04-25T04:07:43.228Z,99.99
2023-04-25T04:08:43.227Z,99.99
2023-04-25T04:09:43.192Z,99.99
2023-04-25T04:10:43.214Z,99.99
2023-04-25T04:11:43.169Z,99.99
2023-04-25T04:12:43.183Z,99.99
2023-04-25T04:13:43.165Z,99.99
2023-04-25T04:14:43.161Z,99.99
2023-04-25T04:15:43.169Z,99.99
2023-04-25T04:16:43.143Z,99.99
2023-04-25T04:17:43.161Z,99.99
2023-04-25T04:18:43.125Z,99.99
2023-04-25T04:19:43.097Z,99.99
2023-04-25T04:20:43.107Z,99.99
2023-04-25T04:21:43.089Z,99.99
2023-04-25T04:22:43.100Z,99.99
2023-04-25T04:23:43.056Z,99.99
2023-04-25T04:24:43.063Z,99.99
2023-04-25T04:25:43.037Z,99.99
2023-04-25T04:26:43.052Z,99.99
2023-04-25T04:27:43.005Z,99.99
2023-04-25T04:28:43.023Z,99.99
2023-04-25T04:29:42.998Z,99.99
2023-04-25T04:30:43.009Z,99.99
2023-04-25T04:31:43.054Z,99.99
2023-04-25T04:32:43.017Z,99.99
2023-04-25T04:33:42.944Z,99.99
2023-04-25T04:34:42.968Z,99.99
2023-04-25T04:35:42.923Z,99.99
2023-04-25T04:36:42.938Z,99.99
2023-04-25T04:37:42.909Z,99.99
2023-04-25T04:38:42.909Z,99.99
2023-04-25T04:39:42.884Z,99.99
2023-04-25T04:40:42.919Z,99.99
2023-04-25T04:41:42.861Z,99.99
2023-04-25T04:42:42.916Z,99.99
2023-04-25T04:43:42.865Z,99.99
2023-04-25T04:44:42.849Z,99.99
2023-04-25T04:45:42.837Z,99.99
2023-04-25T04:46:43.081Z,99.99
2023-04-25T04:47:42.912Z,99.99
2023-04-25T04:48:42.805Z,99.99
2023-04-25T04:49:42.818Z,99.99
2023-04-25T04:50:42.783Z,99.99
2023-04-25T04:51:42.765Z,99.99
2023-04-25T04:52:42.773Z,99.99
2023-04-25T04:53:42.730Z,99.99
2023-04-25T04:54:42.744Z,99.99
2023-04-25T04:55:42.737Z,99.99
2023-04-25T04:56:42.734Z,99.99
2023-04-25T04:57:42.696Z,99.99
2023-04-25T04:58:42.717Z,99.99
2023-04-25T04:59:42.674Z,99.99
2023-04-25T05:00:42.725Z,99.99
2023-04-25T05:01:42.687Z,99.99
2023-04-25T05:02:42.777Z,99.99
2023-04-25T05:03:42.764Z,99.99
2023-04-25T05:04:42.707Z,99.99
2023-04-25T05:05:42.610Z,99.99
2023-04-25T05:06:42.653Z,99.99
2023-04-25T05:07:42.629Z,99.99
2023-04-25T05:08:42.601Z,99.99
2023-04-25T05:09:42.579Z,99.99
2023-04-25T05:10:42.583Z,99.99
2023-04-25T05:11:42.557Z,99.99
2023-04-25T05:12:42.565Z,99.99
2023-04-25T05:13:42.560Z,99.99
2023-04-25T05:14:42.542Z,99.99
2023-04-25T05:15:42.508Z,99.99
2023-04-25T05:16:42.537Z,99.99
2023-04-25T05:17:42.500Z,99.99
2023-04-25T05:18:42.490Z,99.99
2023-04-25T05:19:42.515Z,99.99
2023-04-25T05:20:42.455Z,99.99
2023-04-25T05:21:42.470Z,99.99
2023-04-25T05:22:42.436Z,99.99
2023-04-25T05:23:42.452Z,99.99
2023-04-25T05:24:42.424Z,99.99
2023-04-25T05:25:42.443Z,99.99
2023-04-25T05:26:42.396Z,99.99
2023-04-25T05:27:42.480Z,99.99
2023-04-25T05:28:42.372Z,99.99
2023-04-25T05:29:42.401Z,99.99
2023-04-25T05:30:42.362Z,99.99
2023-04-25T05:31:42.422Z,99.99
2023-04-25T05:32:42.363Z,99.99
2023-04-25T05:33:42.348Z,99.99
2023-04-25T05:34:42.375Z,99.99
2023-04-25T05:35:42.326Z,99.99
2023-04-25T05:36:42.305Z,99.99
2023-04-25T05:37:42.340Z,99.99
2023-04-25T05:38:42.271Z,99.99
2023-04-25T05:39:42.313Z,99.35
2023-04-25T05:40:42.251Z,99.99
2023-04-25T05:41:42.278Z,99.99
2023-04-25T05:42:42.229Z,98.94
2023-04-25T05:43:42.265Z,99.05
2023-04-25T05:44:42.210Z,98.84
2023-04-25T05:45:42.299Z,98.94
2023-04-25T05:46:42.202Z,99.05
2023-04-25T05:47:42.309Z,98.22
2023-04-25T05:48:42.188Z,99.99
2023-04-25T05:49:42.198Z,99.99
2023-04-25T05:50:42.144Z,98.69
2023-04-25T05:51:42.175Z,99.21
2023-04-25T05:52:42.125Z,99.88
2023-04-25T05:53:42.135Z,97.51
2023-04-25T05:54:42.117Z,97.41
2023-04-25T05:55:42.138Z,97.41
2023-04-25T05:56:42.088Z,97.30
2023-04-25T05:57:42.099Z,96.58
2023-04-25T05:58:42.065Z,95.76
2023-04-25T05:59:42.075Z,95.45
2023-04-25T06:00:42.034Z,95.81
2023-04-25T06:01:42.075Z,95.20
2023-04-25T06:02:42.198Z,94.27
2023-04-25T06:03:42.225Z,96.12
2023-04-25T06:04:42.158Z,94.89
2023-04-25T06:05:42.036Z,96.12
2023-04-25T06:06:41.986Z,95.40
2023-04-25T06:07:42.009Z,94.68
2023-04-25T06:08:41.959Z,95.09
2023-04-25T06:09:41.970Z,95.87
2023-04-25T06:10:41.934Z,95.87
2023-04-25T06:11:41.946Z,92.99
2023-04-25T06:12:41.933Z,93.65
2023-04-25T06:13:41.959Z,91.38
2023-04-25T06:14:41.906Z,92.51
2023-04-25T06:15:41.978Z,92.51
2023-04-25T06:16:41.876Z,91.17
2023-04-25T06:17:41.939Z,92.25
2023-04-25T06:18:41.855Z,94.62
2023-04-25T06:19:41.906Z,93.38
2023-04-25T06:20:41.834Z,92.21
2023-04-25T06:21:41.842Z,94.37
2023-04-25T06:22:41.817Z,94.78
2023-04-25T06:23:41.822Z,94.57
2023-04-25T06:24:41.792Z,91.48
2023-04-25T06:25:41.873Z,92.61
2023-04-25T06:26:41.777Z,93.44
2023-04-25T06:27:41.787Z,92.10
2023-04-25T06:28:41.742Z,91.48
2023-04-25T06:29:41.759Z,91.48
2023-04-25T06:30:41.724Z,91.89
2023-04-25T06:31:41.802Z,91.42
2023-04-25T06:32:41.721Z,91.73
2023-04-25T06:33:41.735Z,92.72
2023-04-25T06:34:41.706Z,91.28
2023-04-25T06:35:41.764Z,92.31
2023-04-25T06:36:41.672Z,92.37
2023-04-25T06:37:41.703Z,92.57
2023-04-25T06:38:41.656Z,92.94
2023-04-25T06:39:41.658Z,91.05
2023-04-25T06:40:41.621Z,88.20
2023-04-25T06:41:41.633Z,88.10
2023-04-25T06:42:41.609Z,88.76
2023-04-25T06:43:41.771Z,88.96
2023-04-25T06:44:41.588Z,91.75
2023-04-25T06:45:41.635Z,91.09
2023-04-25T06:46:41.596Z,89.54
2023-04-25T06:47:41.645Z,90.78
2023-04-25T06:48:41.546Z,92.53
2023-04-25T06:49:41.579Z,87.52
2023-04-25T06:50:41.525Z,87.32
2023-04-25T06:51:41.538Z,89.48
2023-04-25T06:52:41.501Z,88.92
2023-04-25T06:53:41.513Z,89.75
2023-04-25T06:54:41.491Z,87.27
2023-04-25T06:55:41.514Z,87.38
2023-04-25T06:56:41.455Z,87.90
2023-04-25T06:57:41.486Z,85.63
2023-04-25T06:58:41.446Z,87.07
2023-04-25T06:59:41.455Z,87.90
2023-04-25T07:00:41.508Z,88.26
2023-04-25T07:01:41.446Z,87.54
2023-04-25T07:02:41.492Z,88.26
2023-04-25T07:03:41.505Z,85.65
2023-04-25T07:04:41.512Z,84.56
2023-04-25T07:05:41.388Z,83.73
2023-04-25T07:06:41.386Z,85.55
2023-04-25T07:07:41.404Z,85.96
2023-04-25T07:08:41.348Z,85.03
2023-04-25T07:09:41.356Z,86.27
2023-04-25T07:10:41.331Z,86.99
2023-04-25T07:11:41.334Z,81.33
2023-04-25T07:12:41.298Z,81.26
2023-04-25T07:13:41.352Z,82.40
2023-04-25T07:14:41.275Z,80.75
2023-04-25T07:15:41.292Z,82.46
2023-04-25T07:16:41.274Z,84.83
2023-04-25T07:17:41.337Z,80.30
2023-04-25T07:18:41.253Z,82.46
2023-04-25T07:19:41.274Z,83.65
2023-04-25T07:20:41.221Z,80.57
2023-04-25T07:21:41.240Z,84.99
2023-04-25T07:22:41.191Z,80.98
2023-04-25T07:23:41.216Z,81.56
2023-04-25T07:24:41.178Z,79.61
2023-04-25T07:25:41.200Z,79.47
2023-04-25T07:26:41.166Z,81.21
2023-04-25T07:27:41.169Z,80.60
2023-04-25T07:28:41.136Z,79.40
2023-04-25T07:29:41.153Z,83.11
2023-04-25T07:30:41.119Z,79.71
2023-04-25T07:31:41.776Z,80.70
2023-04-25T07:32:41.131Z,79.63
2023-04-25T07:33:41.111Z,80.63
2023-04-25T07:34:41.094Z,78.06
2023-04-25T07:35:41.087Z,83.40
2023-04-25T07:36:41.043Z,81.45
2023-04-25T07:37:41.096Z,78.64
2023-04-25T07:38:41.031Z,79.77
2023-04-25T07:39:41.183Z,76.24
2023-04-25T07:40:41.016Z,72.75
2023-04-25T07:41:41.021Z,72.55
2023-04-25T07:42:41.040Z,72.38
2023-04-25T07:43:41.021Z,71.59
2023-04-25T07:44:40.962Z,72.72
2023-04-25T07:45:40.995Z,76.28
2023-04-25T07:46:40.953Z,75.01
2023-04-25T07:47:40.994Z,72.85
2023-04-25T07:48:40.922Z,72.03
2023-04-25T07:49:41.048Z,80.45
2023-04-25T07:50:40.924Z,77.87
2023-04-25T07:51:41.473Z,73.71
2023-04-25T07:52:40.876Z,72.75
2023-04-25T07:53:40.888Z,74.22
2023-04-25T07:54:40.858Z,74.70
2023-04-25T07:55:40.893Z,74.12
2023-04-25T07:56:51.610Z,73.78
2023-04-25T07:57:40.850Z,72.17
2023-04-25T07:58:40.811Z,70.15
2023-04-25T07:59:40.833Z,71.79
2023-04-25T08:00:40.792Z,71.69
2023-04-25T08:01:40.828Z,71.72
2023-04-25T08:02:40.861Z,71.45
2023-04-25T08:03:41.082Z,72.06
2023-04-25T08:04:41.039Z,72.03
2023-04-25T08:05:40.830Z,71.62
2023-04-25T08:06:40.824Z,73.85
2023-04-25T08:07:40.765Z,69.91
2023-04-25T08:08:40.708Z,70.25
2023-04-25T08:09:40.724Z,71.35
2023-04-25T08:10:40.702Z,69.12
2023-04-25T08:11:40.715Z,69.47
2023-04-25T08:12:40.664Z,70.77
2023-04-25T08:13:40.723Z,67.14
2023-04-25T08:14:40.666Z,67.79
2023-04-25T08:15:41.495Z,69.84
2023-04-25T08:16:40.628Z,63.72
2023-04-25T08:17:40.651Z,65.47
2023-04-25T08:18:40.622Z,64.61
2023-04-25T08:19:40.655Z,65.74
2023-04-25T08:20:40.594Z,64.00
2023-04-25T08:21:40.592Z,65.20
2023-04-25T08:22:41.473Z,67.11
2023-04-25T08:23:40.578Z,63.07
2023-04-25T08:24:40.552Z,63.65
2023-04-25T08:25:40.578Z,64.54
2023-04-25T08:26:41.581Z,65.54
2023-04-25T08:27:41.404Z,66.02
2023-04-25T08:28:40.513Z,70.40
2023-04-25T08:29:40.510Z,65.04
2023-04-25T08:30:42.618Z,62.81
2023-04-25T08:31:40.593Z,63.35
2023-04-25T08:32:40.505Z,63.43
2023-04-25T08:33:40.631Z,62.74
2023-04-25T08:34:40.499Z,62.05
2023-04-25T08:35:40.452Z,64.82
2023-04-25T08:36:40.586Z,63.87
2023-04-25T08:37:40.455Z,60.89
2023-04-25T08:38:40.402Z,62.99
2023-04-25T08:39:40.428Z,63.41
2023-04-25T08:40:41.597Z,62.18
2023-04-25T08:41:40.498Z,60.37
2023-04-25T08:42:40.361Z,59.09
2023-04-25T08:43:41.475Z,62.19
2023-04-25T08:44:41.553Z,62.43
2023-04-25T08:45:40.350Z,64.59
2023-04-25T08:46:40.371Z,73.47
2023-04-25T08:47:42.903Z,64.35
2023-04-25T08:48:40.290Z,64.76
2023-04-25T08:49:40.362Z,61.82
2023-04-25T08:50:40.269Z,63.66
2023-04-25T08:51:40.278Z,62.33
2023-04-25T08:52:40.257Z,62.46
2023-04-25T08:53:40.319Z,63.49
2023-04-25T08:54:41.727Z,64.10
2023-04-25T08:55:40.261Z,63.59
2023-04-25T08:56:40.213Z,62.39
2023-04-25T08:57:40.797Z,59.95
2023-04-25T08:58:40.183Z,60.42
2023-04-25T08:59:40.227Z,62.55
2023-04-25T09:00:40.204Z,64.60
2023-04-25T09:01:40.253Z,63.85
2023-04-25T09:02:40.349Z,63.72
2023-04-25T09:03:40.221Z,59.92
2023-04-25T09:04:40.171Z,59.82
2023-04-25T09:05:40.138Z,60.61
2023-04-25T09:06:40.092Z,60.21
2023-04-25T09:07:40.139Z,60.61
2023-04-25T09:08:40.077Z,60.17
2023-04-25T09:09:40.087Z,58.64
2023-04-25T09:10:40.104Z,59.94
2023-04-25T09:11:40.070Z,61.15
2023-04-25T09:12:40.029Z,56.79
2023-04-25T09:13:40.064Z,58.46
2023-04-25T09:14:40.035Z,58.77
2023-04-25T09:15:40.021Z,63.56
2023-04-25T09:16:41.180Z,59.43
2023-04-25T09:17:40.925Z,58.54
2023-04-25T09:18:40.050Z,60.17
2023-04-25T09:19:41.448Z,60.56
2023-04-25T09:20:51.036Z,59.92
2023-04-25T09:21:39.963Z,59.50
2023-04-25T09:22:39.976Z,57.10
2023-04-25T09:23:39.944Z,57.33
2023-04-25T09:24:39.921Z,57.95
2023-04-25T09:25:39.956Z,57.26
2023-04-25T09:26:39.886Z,57.15
2023-04-25T09:27:39.923Z,60.64
2023-04-25T09:28:39.865Z,58.80
2023-04-25T09:29:39.874Z,58.69
2023-04-25T09:30:39.847Z,58.80
2023-04-25T09:31:39.934Z,58.62
2023-04-25T09:32:39.894Z,59.47
2023-04-25T09:33:39.861Z,59.98
2023-04-25T09:34:39.831Z,60.91
2023-04-25T09:35:39.792Z,60.11
2023-04-25T09:36:39.857Z,61.04
2023-04-25T09:37:39.786Z,60.73
2023-04-25T09:38:39.783Z,61.86
2023-04-25T09:39:39.773Z,61.04
2023-04-25T09:40:39.759Z,60.93
2023-04-25T09:41:39.729Z,61.86
2023-04-25T09:42:39.742Z,62.04
2023-04-25T09:43:39.809Z,61.62
2023-04-25T09:44:41.043Z,60.39
2023-04-25T09:45:42.433Z,59.36
2023-04-25T09:46:39.753Z,59.77
2023-04-25T09:47:39.694Z,60.39
2023-04-25T09:48:39.697Z,61.18
2023-04-25T09:49:39.686Z,60.85
2023-04-25T09:50:39.657Z,60.03
2023-04-25T09:51:39.626Z,61.26
2023-04-25T09:52:39.642Z,60.64
2023-04-25T09:53:39.607Z,60.44
2023-04-25T09:54:39.622Z,60.64
2023-04-25T09:55:39.608Z,60.03
2023-04-25T09:56:39.589Z,58.83
2023-04-25T09:57:39.571Z,58.51
2023-04-25T09:58:39.590Z,57.90
2023-04-25T09:59:39.549Z,59.52
2023-04-25T10:00:39.569Z,59.80
2023-04-25T10:01:39.604Z,57.41
2023-04-25T10:02:39.660Z,57.10
2023-04-25T10:03:39.602Z,58.61
2023-04-25T10:04:39.584Z,56.07
2023-04-25T10:05:40.368Z,57.41
2023-04-25T10:06:40.391Z,57.79
2023-04-25T10:07:39.911Z,57.89
2023-04-25T10:08:39.488Z,61.25
2023-04-25T10:09:39.473Z,56.92
2023-04-25T10:10:39.454Z,58.63
2023-04-25T10:11:39.427Z,54.10
2023-04-25T10:12:39.439Z,51.73
2023-04-25T10:13:39.406Z,50.91
2023-04-25T10:14:39.405Z,50.50
2023-04-25T10:15:40.367Z,52.52
2023-04-25T10:16:39.403Z,51.09
2023-04-25T10:17:39.382Z,51.19
2023-04-25T10:18:39.379Z,51.57
2023-04-25T10:19:39.352Z,50.12
2023-04-25T10:20:39.362Z,50.23
2023-04-25T10:21:39.877Z,48.96
2023-04-25T10:22:39.322Z,48.11
2023-04-25T10:23:39.310Z,48.24
2023-04-25T10:24:39.301Z,49.59
2023-04-25T10:25:39.283Z,49.77
2023-04-25T10:26:39.283Z,48.55
2023-04-25T10:27:39.267Z,47.85
2023-04-25T10:28:39.261Z,47.36
2023-04-25T10:29:39.233Z,53.78
2023-04-25T10:30:39.309Z,47.81
2023-04-25T10:31:39.273Z,52.86
2023-04-25T10:32:39.221Z,52.02
2023-04-25T10:33:39.180Z,46.75
2023-04-25T10:34:39.196Z,49.10
2023-04-25T10:35:39.168Z,48.00
2023-04-25T10:36:39.903Z,49.55
2023-04-25T10:37:40.635Z,49.30
2023-04-25T10:38:39.152Z,50.14
2023-04-25T10:39:39.134Z,52.92
2023-04-25T10:40:39.135Z,52.00
2023-04-25T10:41:39.112Z,54.67
2023-04-25T10:42:39.125Z,53.75
2023-04-25T10:43:39.118Z,58.86
2023-04-25T10:44:39.095Z,54.67
2023-04-25T10:45:39.063Z,55.64
2023-04-25T10:46:39.135Z,55.66
2023-04-25T10:47:39.045Z,56.10
2023-04-25T10:48:39.043Z,55.59
2023-04-25T10:49:39.043Z,54.74
2023-04-25T10:50:39.033Z,54.23
2023-04-25T10:51:53.921Z,54.23
2023-04-25T10:52:39.018Z,54.44
2023-04-25T10:53:38.987Z,53.00
2023-04-25T10:54:38.983Z,53.10
2023-04-25T10:55:38.986Z,52.61
2023-04-25T10:56:38.966Z,53.92
2023-04-25T10:57:38.932Z,53.69
2023-04-25T10:58:38.940Z,55.92
2023-04-25T10:59:38.921Z,53.13
2023-04-25T11:00:48.247Z,55.26
2023-04-25T11:01:38.984Z,54.51
2023-04-25T11:02:39.113Z,51.45
2023-04-25T11:03:41.493Z,52.72
2023-04-25T11:04:39.125Z,53.26
2023-04-25T11:05:50.806Z,53.46
2023-04-25T11:06:38.881Z,54.87
2023-04-25T11:07:39.011Z,54.08
2023-04-25T11:08:38.847Z,54.97
2023-04-25T11:09:38.830Z,53.13
2023-04-25T11:10:38.819Z,52.85
2023-04-25T11:11:38.782Z,52.13
2023-04-25T11:12:38.823Z,53.44
2023-04-25T11:13:38.775Z,56.51
2023-04-25T11:15:38.755Z,54.41
2023-04-25T11:16:38.807Z,51.16
2023-04-25T11:17:38.903Z,52.92
2023-04-25T11:18:38.732Z,56.28
2023-04-25T11:19:38.733Z,53.92
2023-04-25T11:20:38.713Z,52.70
2023-04-25T11:21:38.688Z,52.90
2023-04-25T11:22:38.688Z,53.62
2023-04-25T11:23:38.683Z,52.08
2023-04-25T11:24:38.723Z,52.00
2023-04-25T11:25:39.077Z,51.50
2023-04-25T11:26:38.676Z,51.70
2023-04-25T11:27:38.628Z,52.29
2023-04-25T11:28:38.636Z,51.88
2023-04-25T11:29:38.592Z,52.59
2023-04-25T11:30:38.617Z,52.08
2023-04-25T11:31:38.678Z,52.92
2023-04-25T11:32:38.717Z,53.31
2023-04-25T11:33:38.585Z,53.69
2023-04-25T11:34:41.431Z,51.40
2023-04-25T11:35:38.537Z,51.01
2023-04-25T11:36:38.570Z,50.91
2023-04-25T11:37:38.524Z,51.21
2023-04-25T11:38:38.574Z,51.53
2023-04-25T11:39:38.488Z,50.84
2023-04-25T11:40:38.607Z,48.44
2023-04-25T11:41:38.673Z,48.83
2023-04-25T11:42:38.512Z,48.26
2023-04-25T11:43:39.321Z,49.82
2023-04-25T11:44:38.470Z,51.27
2023-04-25T11:45:38.481Z,50.99
2023-04-25T11:46:38.522Z,54.46
2023-04-25T11:47:38.496Z,48.99
2023-04-25T11:48:38.414Z,48.34
2023-04-25T11:49:38.421Z,50.10
2023-04-25T11:50:38.394Z,51.22
2023-04-25T11:51:38.358Z,51.45
2023-04-25T11:52:38.405Z,53.19
2023-04-25T11:53:38.342Z,53.80
2023-04-25T11:54:38.380Z,53.21
2023-04-25T11:55:38.357Z,52.88
2023-04-25T11:56:38.349Z,51.17
2023-04-25T11:57:38.296Z,51.15
2023-04-25T11:58:38.321Z,50.54
2023-04-25T11:59:38.275Z,50.67
2023-04-25T12:00:38.292Z,52.55
2023-04-25T12:01:38.281Z,49.29
2023-04-25T12:02:38.334Z,48.79
2023-04-25T12:03:38.429Z,49.48
2023-04-25T12:04:38.477Z,47.85
2023-04-25T12:05:38.377Z,46.42
2023-04-25T12:06:38.272Z,50.98
2023-04-25T12:07:38.270Z,44.36
2023-04-25T12:08:38.201Z,44.32
2023-04-25T12:09:38.175Z,46.15
2023-04-25T12:10:38.187Z,46.48
2023-04-25T12:11:39.384Z,47.32
2023-04-25T12:12:38.193Z,48.63
2023-04-25T12:13:38.268Z,47.54
2023-04-25T12:14:38.178Z,45.00
2023-04-25T12:15:38.151Z,46.47
2023-04-25T12:16:38.184Z,50.11
2023-04-25T12:17:38.124Z,46.64
2023-04-25T12:18:38.097Z,48.38
2023-04-25T12:19:38.097Z,46.42
2023-04-25T12:20:38.081Z,46.75
2023-04-25T12:21:46.877Z,44.00
2023-04-25T12:22:38.091Z,48.18
2023-04-25T12:23:38.025Z,45.30
2023-04-25T12:24:39.425Z,44.38
2023-04-25T12:25:38.549Z,44.40
2023-04-25T12:26:38.008Z,44.04
2023-04-25T12:27:37.986Z,45.40
2023-04-25T12:28:37.998Z,46.18
2023-04-25T12:29:49.441Z,45.87
2023-04-25T12:30:37.968Z,46.36
2023-04-25T12:31:37.978Z,45.01
2023-04-25T12:32:38.009Z,44.69
2023-04-25T12:33:37.949Z,45.14
2023-04-25T12:34:37.922Z,43.71
2023-04-25T12:35:37.895Z,44.51
2023-04-25T12:36:37.911Z,45.36
2023-04-25T12:37:37.909Z,50.08
2023-04-25T12:38:37.881Z,47.63
2023-04-25T12:39:38.842Z,48.16
2023-04-25T12:40:37.865Z,48.59
2023-04-25T12:41:37.830Z,49.63
2023-04-25T12:42:37.843Z,53.21
2023-04-25T12:43:37.821Z,48.72
2023-04-25T12:44:37.830Z,48.33
2023-04-25T12:45:37.794Z,48.54
2023-04-25T12:46:37.894Z,49.07
2023-04-25T12:47:37.814Z,50.50
2023-04-25T12:48:37.782Z,49.27
2023-04-25T12:49:37.768Z,50.55
2023-04-25T12:50:37.752Z,51.67
2023-04-25T12:51:37.743Z,50.78
2023-04-25T12:52:37.739Z,51.51
2023-04-25T12:53:37.699Z,50.57